EGTK

Oxford (Kidlington) Airport

Kidlington, United Kingdom
METAR EGTK 142120Z 25008KT CAVOK 16/13 Q1017
Observed Flight Rules
Aug-14 @ 21:20 UTC (4 hours ago) Visual Flight Rules
Wind Visibility Clouds
250° at 8 knots 10,000+ meters
  • Clear skies
Temperatures Readings
Current 16°C / 61°F
Dewpoint 13°C / 55°F
Humidity 83%
Altimeter 30.03" Hg
Pressure 1017 hPa
Elevation 82
METAR EGTK 142120Z 25008KT CAVOK 16/13 Q1017
Observed Flight Rules
Aug-14 @ 21:20 UTC
(4 hours ago)
VFR
Wind Visibility
250° at 8 knots 10,000+ meters
Clouds
  • Clear skies
Temperature Dewpoint
16°C / 61°F 13°C / 55°F
Humidity Altimeter Pressure
83% 30.03" Hg 1017 hPa